sensor_id;sensor_type;location;lat;lon;timestamp;P1;durP1;ratioP1;P2;durP2;ratioP2
23539;SDS011;11947;50.810;4.394;2023-03-25T00:01:29;2.28;;;0.80;;
23539;SDS011;11947;50.810;4.394;2023-03-25T00:03:56;4.03;;;1.08;;
23539;SDS011;11947;50.810;4.394;2023-03-25T00:06:28;2.45;;;1.05;;
23539;SDS011;11947;50.810;4.394;2023-03-25T00:08:55;5.53;;;1.00;;
23539;SDS011;11947;50.810;4.394;2023-03-25T00:11:22;2.40;;;0.90;;
23539;SDS011;11947;50.810;4.394;2023-03-25T00:13:48;3.80;;;1.10;;
23539;SDS011;11947;50.810;4.394;2023-03-25T00:16:14;5.60;;;1.10;;
23539;SDS011;11947;50.810;4.394;2023-03-25T00:18:40;4.32;;;1.15;;
23539;SDS011;11947;50.810;4.394;2023-03-25T00:21:06;5.65;;;1.10;;
23539;SDS011;11947;50.810;4.394;2023-03-25T00:23:34;5.70;;;1.35;;
23539;SDS011;11947;50.810;4.394;2023-03-25T00:26:01;2.22;;;1.10;;
23539;SDS011;11947;50.810;4.394;2023-03-25T00:28:27;4.60;;;1.20;;
23539;SDS011;11947;50.810;4.394;2023-03-25T00:30:57;7.40;;;1.00;;
23539;SDS011;11947;50.810;4.394;2023-03-25T00:33:25;4.13;;;1.55;;
23539;SDS011;11947;50.810;4.394;2023-03-25T00:35:51;4.43;;;1.05;;
23539;SDS011;11947;50.810;4.394;2023-03-25T00:38:18;6.47;;;1.17;;
23539;SDS011;11947;50.810;4.394;2023-03-25T00:40:44;4.45;;;1.10;;
23539;SDS011;11947;50.810;4.394;2023-03-25T00:43:13;4.18;;;1.20;;
23539;SDS011;11947;50.810;4.394;2023-03-25T00:45:38;6.35;;;1.20;;
23539;SDS011;11947;50.810;4.394;2023-03-25T00:48:04;8.27;;;1.25;;
23539;SDS011;11947;50.810;4.394;2023-03-25T00:50:30;7.90;;;1.30;;
23539;SDS011;11947;50.810;4.394;2023-03-25T00:52:55;6.88;;;1.40;;
23539;SDS011;11947;50.810;4.394;2023-03-25T00:55:21;7.72;;;1.02;;
23539;SDS011;11947;50.810;4.394;2023-03-25T00:57:47;6.32;;;1.05;;
23539;SDS011;11947;50.810;4.394;2023-03-25T01:00:13;5.68;;;1.40;;
23539;SDS011;11947;50.810;4.394;2023-03-25T01:02:40;5.13;;;1.17;;
23539;SDS011;11947;50.810;4.394;2023-03-25T01:05:06;4.30;;;1.35;;
23539;SDS011;11947;50.810;4.394;2023-03-25T01:07:36;6.97;;;1.20;;
23539;SDS011;11947;50.810;4.394;2023-03-25T01:10:06;7.43;;;1.35;;
23539;SDS011;11947;50.810;4.394;2023-03-25T01:12:32;6.35;;;1.45;;
23539;SDS011;11947;50.810;4.394;2023-03-25T01:14:58;6.50;;;1.33;;
23539;SDS011;11947;50.810;4.394;2023-03-25T01:17:25;10.20;;;2.30;;
23539;SDS011;11947;50.810;4.394;2023-03-25T01:19:50;5.50;;;1.23;;
23539;SDS011;11947;50.810;4.394;2023-03-25T01:22:16;6.00;;;1.50;;
23539;SDS011;11947;50.810;4.394;2023-03-25T01:24:42;4.78;;;1.35;;
23539;SDS011;11947;50.810;4.394;2023-03-25T01:27:07;3.83;;;1.55;;
23539;SDS011;11947;50.810;4.394;2023-03-25T01:29:33;7.53;;;1.60;;
23539;SDS011;11947;50.810;4.394;2023-03-25T01:31:58;6.03;;;1.45;;
23539;SDS011;11947;50.810;4.394;2023-03-25T01:34:24;5.80;;;1.50;;
23539;SDS011;11947;50.810;4.394;2023-03-25T01:36:50;6.30;;;1.92;;
23539;SDS011;11947;50.810;4.394;2023-03-25T01:39:19;7.18;;;1.60;;
23539;SDS011;11947;50.810;4.394;2023-03-25T01:41:45;5.00;;;1.55;;
23539;SDS011;11947;50.810;4.394;2023-03-25T01:46:39;6.80;;;1.77;;
23539;SDS011;11947;50.810;4.394;2023-03-25T01:49:09;7.82;;;1.33;;
23539;SDS011;11947;50.810;4.394;2023-03-25T01:52:02;4.70;;;1.30;;
23539;SDS011;11947;50.810;4.394;2023-03-25T01:54:31;7.13;;;1.15;;
23539;SDS011;11947;50.810;4.394;2023-03-25T01:56:58;9.75;;;1.42;;
23539;SDS011;11947;50.810;4.394;2023-03-25T01:59:24;7.30;;;1.00;;
23539;SDS011;11947;50.810;4.394;2023-03-25T02:01:52;6.38;;;1.30;;
23539;SDS011;11947;50.810;4.394;2023-03-25T02:04:27;9.43;;;1.40;;
23539;SDS011;11947;50.810;4.394;2023-03-25T02:09:32;5.57;;;1.20;;
23539;SDS011;11947;50.810;4.394;2023-03-25T02:11:59;7.43;;;1.10;;
23539;SDS011;11947;50.810;4.394;2023-03-25T02:14:26;12.77;;;1.45;;
23539;SDS011;11947;50.810;4.394;2023-03-25T02:28:17;7.25;;;1.00;;
23539;SDS011;11947;50.810;4.394;2023-03-25T02:42:41;5.00;;;1.10;;
23539;SDS011;11947;50.810;4.394;2023-03-25T02:45:31;4.40;;;1.00;;
23539;SDS011;11947;50.810;4.394;2023-03-25T02:48:04;7.57;;;1.20;;
23539;SDS011;11947;50.810;4.394;2023-03-25T02:50:49;8.80;;;1.08;;
23539;SDS011;11947;50.810;4.394;2023-03-25T02:53:22;6.45;;;1.20;;
23539;SDS011;11947;50.810;4.394;2023-03-25T02:55:59;8.63;;;1.20;;
23539;SDS011;11947;50.810;4.394;2023-03-25T02:58:27;9.02;;;1.30;;
23539;SDS011;11947;50.810;4.394;2023-03-25T03:00:54;6.28;;;1.30;;
23539;SDS011;11947;50.810;4.394;2023-03-25T03:03:24;4.40;;;0.93;;
23539;SDS011;11947;50.810;4.394;2023-03-25T03:05:51;6.03;;;1.00;;
23539;SDS011;11947;50.810;4.394;2023-03-25T03:13:42;6.88;;;1.20;;
23539;SDS011;11947;50.810;4.394;2023-03-25T03:16:48;8.10;;;1.10;;
23539;SDS011;11947;50.810;4.394;2023-03-25T03:22:44;15.73;;;2.15;;
23539;SDS011;11947;50.810;4.394;2023-03-25T03:28:35;11.10;;;1.17;;
23539;SDS011;11947;50.810;4.394;2023-03-25T03:31:37;12.02;;;1.98;;
23539;SDS011;11947;50.810;4.394;2023-03-25T03:34:08;7.90;;;1.10;;
23539;SDS011;11947;50.810;4.394;2023-03-25T03:36:48;12.77;;;1.40;;
23539;SDS011;11947;50.810;4.394;2023-03-25T03:39:19;7.40;;;1.08;;
23539;SDS011;11947;50.810;4.394;2023-03-25T03:44:19;11.30;;;1.52;;
23539;SDS011;11947;50.810;4.394;2023-03-25T03:46:57;13.45;;;1.77;;
23539;SDS011;11947;50.810;4.394;2023-03-25T03:49:34;11.45;;;1.50;;
23539;SDS011;11947;50.810;4.394;2023-03-25T03:52:09;11.45;;;1.60;;
23539;SDS011;11947;50.810;4.394;2023-03-25T03:54:46;7.95;;;1.38;;
23539;SDS011;11947;50.810;4.394;2023-03-25T04:00:19;8.77;;;1.63;;
23539;SDS011;11947;50.810;4.394;2023-03-25T04:05:41;15.73;;;1.95;;
23539;SDS011;11947;50.810;4.394;2023-03-25T04:08:12;11.30;;;2.20;;
23539;SDS011;11947;50.810;4.394;2023-03-25T04:11:22;14.10;;;2.40;;
23539;SDS011;11947;50.810;4.394;2023-03-25T04:13:52;13.40;;;1.67;;
23539;SDS011;11947;50.810;4.394;2023-03-25T04:16:22;9.57;;;1.80;;
23539;SDS011;11947;50.810;4.394;2023-03-25T04:18:48;12.65;;;2.17;;
23539;SDS011;11947;50.810;4.394;2023-03-25T04:21:18;11.45;;;1.75;;
23539;SDS011;11947;50.810;4.394;2023-03-25T04:23:44;10.88;;;1.77;;
23539;SDS011;11947;50.810;4.394;2023-03-25T04:26:10;16.83;;;1.90;;
23539;SDS011;11947;50.810;4.394;2023-03-25T04:28:37;11.23;;;1.90;;
23539;SDS011;11947;50.810;4.394;2023-03-25T04:31:10;16.90;;;2.20;;
23539;SDS011;11947;50.810;4.394;2023-03-25T04:33:39;12.35;;;1.80;;
23539;SDS011;11947;50.810;4.394;2023-03-25T04:36:06;9.82;;;1.67;;
23539;SDS011;11947;50.810;4.394;2023-03-25T04:38:32;14.98;;;1.92;;
23539;SDS011;11947;50.810;4.394;2023-03-25T04:40:57;16.90;;;2.08;;
23539;SDS011;11947;50.810;4.394;2023-03-25T04:43:24;9.73;;;1.90;;
23539;SDS011;11947;50.810;4.394;2023-03-25T04:45:49;15.45;;;2.00;;
23539;SDS011;11947;50.810;4.394;2023-03-25T04:48:20;10.93;;;2.00;;
23539;SDS011;11947;50.810;4.394;2023-03-25T04:50:48;9.27;;;1.75;;
23539;SDS011;11947;50.810;4.394;2023-03-25T04:53:15;10.15;;;2.33;;
23539;SDS011;11947;50.810;4.394;2023-03-25T04:55:41;8.90;;;1.50;;
23539;SDS011;11947;50.810;4.394;2023-03-25T04:58:11;8.13;;;1.48;;
23539;SDS011;11947;50.810;4.394;2023-03-25T05:00:39;12.13;;;1.67;;
23539;SDS011;11947;50.810;4.394;2023-03-25T05:03:07;5.60;;;1.17;;
23539;SDS011;11947;50.810;4.394;2023-03-25T05:05:35;8.90;;;1.92;;
23539;SDS011;11947;50.810;4.394;2023-03-25T05:08:01;9.90;;;1.60;;
23539;SDS011;11947;50.810;4.394;2023-03-25T05:10:27;12.43;;;1.63;;
23539;SDS011;11947;50.810;4.394;2023-03-25T05:12:59;6.10;;;1.48;;
23539;SDS011;11947;50.810;4.394;2023-03-25T05:15:26;12.85;;;1.58;;
23539;SDS011;11947;50.810;4.394;2023-03-25T05:17:54;9.00;;;1.50;;
23539;SDS011;11947;50.810;4.394;2023-03-25T05:20:19;10.63;;;1.60;;
23539;SDS011;11947;50.810;4.394;2023-03-25T05:22:46;12.65;;;1.50;;
23539;SDS011;11947;50.810;4.394;2023-03-25T05:25:12;8.95;;;1.70;;
23539;SDS011;11947;50.810;4.394;2023-03-25T05:27:37;11.55;;;1.70;;
23539;SDS011;11947;50.810;4.394;2023-03-25T05:30:03;5.68;;;1.40;;
23539;SDS011;11947;50.810;4.394;2023-03-25T05:32:30;9.80;;;1.92;;
23539;SDS011;11947;50.810;4.394;2023-03-25T05:34:59;17.15;;;2.15;;
23539;SDS011;11947;50.810;4.394;2023-03-25T05:37:26;17.50;;;2.42;;
23539;SDS011;11947;50.810;4.394;2023-03-25T05:39:51;12.07;;;1.90;;
23539;SDS011;11947;50.810;4.394;2023-03-25T05:42:17;7.82;;;1.70;;
23539;SDS011;11947;50.810;4.394;2023-03-25T05:44:47;13.13;;;1.92;;
23539;SDS011;11947;50.810;4.394;2023-03-25T05:47:22;12.18;;;1.90;;
23539;SDS011;11947;50.810;4.394;2023-03-25T05:49:49;11.85;;;2.13;;
23539;SDS011;11947;50.810;4.394;2023-03-25T05:52:16;11.10;;;2.05;;
23539;SDS011;11947;50.810;4.394;2023-03-25T05:54:44;10.85;;;1.75;;
23539;SDS011;11947;50.810;4.394;2023-03-25T05:57:10;16.45;;;2.13;;
23539;SDS011;11947;50.810;4.394;2023-03-25T05:59:37;11.98;;;1.77;;
23539;SDS011;11947;50.810;4.394;2023-03-25T06:02:12;17.10;;;2.65;;
23539;SDS011;11947;50.810;4.394;2023-03-25T06:04:39;12.00;;;2.22;;
23539;SDS011;11947;50.810;4.394;2023-03-25T06:07:11;9.77;;;1.88;;
23539;SDS011;11947;50.810;4.394;2023-03-25T06:09:43;11.13;;;2.35;;
23539;SDS011;11947;50.810;4.394;2023-03-25T06:12:13;15.25;;;2.05;;
23539;SDS011;11947;50.810;4.394;2023-03-25T06:14:40;14.30;;;1.77;;
23539;SDS011;11947;50.810;4.394;2023-03-25T06:17:13;12.88;;;2.05;;
23539;SDS011;11947;50.810;4.394;2023-03-25T06:19:40;8.43;;;1.42;;
23539;SDS011;11947;50.810;4.394;2023-03-25T06:22:06;11.82;;;1.83;;
23539;SDS011;11947;50.810;4.394;2023-03-25T06:24:34;13.23;;;1.70;;
23539;SDS011;11947;50.810;4.394;2023-03-25T06:27:01;11.38;;;1.65;;
23539;SDS011;11947;50.810;4.394;2023-03-25T06:29:27;11.05;;;1.63;;
23539;SDS011;11947;50.810;4.394;2023-03-25T06:31:53;10.88;;;1.08;;
23539;SDS011;11947;50.810;4.394;2023-03-25T06:34:18;12.52;;;1.80;;
23539;SDS011;11947;50.810;4.394;2023-03-25T06:36:44;8.45;;;1.20;;
23539;SDS011;11947;50.810;4.394;2023-03-25T06:39:13;8.43;;;1.40;;
23539;SDS011;11947;50.810;4.394;2023-03-25T06:41:40;17.60;;;1.85;;
23539;SDS011;11947;50.810;4.394;2023-03-25T06:44:06;10.02;;;1.20;;
23539;SDS011;11947;50.810;4.394;2023-03-25T06:46:32;11.35;;;1.70;;
23539;SDS011;11947;50.810;4.394;2023-03-25T06:48:57;9.13;;;1.20;;
23539;SDS011;11947;50.810;4.394;2023-03-25T06:51:23;12.98;;;1.65;;
23539;SDS011;11947;50.810;4.394;2023-03-25T06:53:48;6.07;;;0.98;;
23539;SDS011;11947;50.810;4.394;2023-03-25T06:56:14;12.63;;;1.38;;
23539;SDS011;11947;50.810;4.394;2023-03-25T06:58:40;6.97;;;0.90;;
23539;SDS011;11947;50.810;4.394;2023-03-25T07:01:06;13.52;;;1.50;;
23539;SDS011;11947;50.810;4.394;2023-03-25T07:03:32;18.80;;;1.80;;
23539;SDS011;11947;50.810;4.394;2023-03-25T07:06:00;13.18;;;1.80;;
23539;SDS011;11947;50.810;4.394;2023-03-25T07:08:25;9.40;;;1.60;;
23539;SDS011;11947;50.810;4.394;2023-03-25T07:10:51;12.88;;;1.85;;
23539;SDS011;11947;50.810;4.394;2023-03-25T07:13:17;16.48;;;1.88;;
23539;SDS011;11947;50.810;4.394;2023-03-25T07:15:42;9.52;;;1.60;;
23539;SDS011;11947;50.810;4.394;2023-03-25T07:18:08;10.85;;;1.38;;
23539;SDS011;11947;50.810;4.394;2023-03-25T07:20:33;9.77;;;1.83;;
23539;SDS011;11947;50.810;4.394;2023-03-25T07:22:59;10.30;;;1.67;;
23539;SDS011;11947;50.810;4.394;2023-03-25T07:25:25;9.48;;;1.60;;
23539;SDS011;11947;50.810;4.394;2023-03-25T07:27:50;13.90;;;1.27;;
23539;SDS011;11947;50.810;4.394;2023-03-25T07:30:16;12.90;;;1.70;;
23539;SDS011;11947;50.810;4.394;2023-03-25T07:32:43;13.82;;;1.65;;
23539;SDS011;11947;50.810;4.394;2023-03-25T07:35:09;12.70;;;1.65;;
23539;SDS011;11947;50.810;4.394;2023-03-25T07:37:35;16.40;;;2.33;;
23539;SDS011;11947;50.810;4.394;2023-03-25T07:40:00;14.48;;;1.90;;
23539;SDS011;11947;50.810;4.394;2023-03-25T07:42:26;9.77;;;1.35;;
23539;SDS011;11947;50.810;4.394;2023-03-25T07:44:52;14.68;;;1.77;;
23539;SDS011;11947;50.810;4.394;2023-03-25T07:47:17;15.60;;;1.92;;
23539;SDS011;11947;50.810;4.394;2023-03-25T07:49:43;17.23;;;2.17;;
23539;SDS011;11947;50.810;4.394;2023-03-25T07:52:10;13.07;;;1.92;;
23539;SDS011;11947;50.810;4.394;2023-03-25T07:54:36;10.73;;;1.67;;
23539;SDS011;11947;50.810;4.394;2023-03-25T07:57:02;10.45;;;1.40;;
23539;SDS011;11947;50.810;4.394;2023-03-25T07:59:28;19.45;;;2.28;;
23539;SDS011;11947;50.810;4.394;2023-03-25T08:01:53;15.48;;;1.90;;
23539;SDS011;11947;50.810;4.394;2023-03-25T08:04:19;12.48;;;1.85;;
23539;SDS011;11947;50.810;4.394;2023-03-25T08:06:44;16.05;;;2.15;;
23539;SDS011;11947;50.810;4.394;2023-03-25T08:09:10;16.67;;;1.60;;
23539;SDS011;11947;50.810;4.394;2023-03-25T08:11:36;9.77;;;1.52;;
23539;SDS011;11947;50.810;4.394;2023-03-25T08:14:01;14.35;;;1.52;;
23539;SDS011;11947;50.810;4.394;2023-03-25T08:16:28;14.95;;;1.83;;
23539;SDS011;11947;50.810;4.394;2023-03-25T08:18:53;16.55;;;2.10;;
23539;SDS011;11947;50.810;4.394;2023-03-25T08:21:19;14.35;;;1.80;;
23539;SDS011;11947;50.810;4.394;2023-03-25T08:23:49;13.07;;;2.15;;
23539;SDS011;11947;50.810;4.394;2023-03-25T08:26:16;14.40;;;2.22;;
23539;SDS011;11947;50.810;4.394;2023-03-25T08:28:41;10.88;;;1.88;;
23539;SDS011;11947;50.810;4.394;2023-03-25T08:31:07;21.45;;;4.28;;
23539;SDS011;11947;50.810;4.394;2023-03-25T08:33:33;18.45;;;2.10;;
23539;SDS011;11947;50.810;4.394;2023-03-25T08:36:05;14.50;;;1.88;;
23539;SDS011;11947;50.810;4.394;2023-03-25T08:38:31;18.83;;;2.25;;
23539;SDS011;11947;50.810;4.394;2023-03-25T08:40:57;15.57;;;2.28;;
23539;SDS011;11947;50.810;4.394;2023-03-25T08:43:26;25.25;;;2.67;;
23539;SDS011;11947;50.810;4.394;2023-03-25T08:45:52;15.73;;;2.05;;
23539;SDS011;11947;50.810;4.394;2023-03-25T08:48:17;21.10;;;2.55;;
23539;SDS011;11947;50.810;4.394;2023-03-25T08:50:43;14.70;;;1.65;;
23539;SDS011;11947;50.810;4.394;2023-03-25T08:53:09;11.85;;;1.85;;
23539;SDS011;11947;50.810;4.394;2023-03-25T08:55:35;13.25;;;2.00;;
23539;SDS011;11947;50.810;4.394;2023-03-25T08:58:02;17.10;;;2.25;;
23539;SDS011;11947;50.810;4.394;2023-03-25T09:00:28;19.17;;;2.63;;
23539;SDS011;11947;50.810;4.394;2023-03-25T09:02:55;16.77;;;2.83;;
23539;SDS011;11947;50.810;4.394;2023-03-25T09:05:22;17.55;;;2.15;;
23539;SDS011;11947;50.810;4.394;2023-03-25T09:07:48;11.57;;;2.22;;
23539;SDS011;11947;50.810;4.394;2023-03-25T09:10:14;15.80;;;1.98;;
23539;SDS011;11947;50.810;4.394;2023-03-25T09:12:39;20.17;;;2.40;;
23539;SDS011;11947;50.810;4.394;2023-03-25T09:15:05;18.27;;;2.40;;
23539;SDS011;11947;50.810;4.394;2023-03-25T09:17:31;20.17;;;2.05;;
23539;SDS011;11947;50.810;4.394;2023-03-25T09:19:57;17.33;;;2.35;;
23539;SDS011;11947;50.810;4.394;2023-03-25T09:22:22;15.73;;;2.03;;
23539;SDS011;11947;50.810;4.394;2023-03-25T09:24:48;16.27;;;2.15;;
23539;SDS011;11947;50.810;4.394;2023-03-25T09:27:14;17.20;;;2.65;;
23539;SDS011;11947;50.810;4.394;2023-03-25T09:29:39;19.48;;;3.05;;
23539;SDS011;11947;50.810;4.394;2023-03-25T09:32:05;12.65;;;2.03;;
23539;SDS011;11947;50.810;4.394;2023-03-25T09:34:31;14.05;;;2.17;;
23539;SDS011;11947;50.810;4.394;2023-03-25T09:36:56;12.93;;;1.98;;
23539;SDS011;11947;50.810;4.394;2023-03-25T09:39:22;25.10;;;2.45;;
23539;SDS011;11947;50.810;4.394;2023-03-25T09:42:00;13.10;;;1.95;;
23539;SDS011;11947;50.810;4.394;2023-03-25T09:47:10;18.88;;;2.53;;
23539;SDS011;11947;50.810;4.394;2023-03-25T09:49:39;11.00;;;2.05;;
23539;SDS011;11947;50.810;4.394;2023-03-25T09:52:14;12.35;;;2.22;;
23539;SDS011;11947;50.810;4.394;2023-03-25T09:54:45;17.40;;;2.17;;
23539;SDS011;11947;50.810;4.394;2023-03-25T09:59:51;15.70;;;2.83;;
23539;SDS011;11947;50.810;4.394;2023-03-25T10:13:21;14.98;;;2.28;;
23539;SDS011;11947;50.810;4.394;2023-03-25T10:21:27;17.65;;;2.58;;
23539;SDS011;11947;50.810;4.394;2023-03-25T10:27:20;16.35;;;2.38;;
23539;SDS011;11947;50.810;4.394;2023-03-25T10:35:17;19.35;;;2.70;;
23539;SDS011;11947;50.810;4.394;2023-03-25T10:37:47;15.82;;;2.60;;
23539;SDS011;11947;50.810;4.394;2023-03-25T10:40:29;12.77;;;2.33;;
23539;SDS011;11947;50.810;4.394;2023-03-25T10:43:11;10.48;;;2.60;;
23539;SDS011;11947;50.810;4.394;2023-03-25T10:45:47;16.23;;;2.47;;
23539;SDS011;11947;50.810;4.394;2023-03-25T10:48:23;12.35;;;2.70;;
23539;SDS011;11947;50.810;4.394;2023-03-25T10:50:52;21.27;;;3.10;;
23539;SDS011;11947;50.810;4.394;2023-03-25T10:53:49;12.60;;;2.53;;
23539;SDS011;11947;50.810;4.394;2023-03-25T10:56:28;14.18;;;2.50;;
23539;SDS011;11947;50.810;4.394;2023-03-25T10:58:58;10.32;;;2.15;;
23539;SDS011;11947;50.810;4.394;2023-03-25T11:01:30;20.88;;;2.53;;
23539;SDS011;11947;50.810;4.394;2023-03-25T11:04:03;14.73;;;2.33;;
23539;SDS011;11947;50.810;4.394;2023-03-25T11:06:32;13.13;;;2.15;;
23539;SDS011;11947;50.810;4.394;2023-03-25T11:11:33;18.23;;;2.38;;
23539;SDS011;11947;50.810;4.394;2023-03-25T11:13:59;11.68;;;2.05;;
23539;SDS011;11947;50.810;4.394;2023-03-25T11:16:30;18.63;;;2.30;;
23539;SDS011;11947;50.810;4.394;2023-03-25T11:19:30;18.10;;;2.25;;
23539;SDS011;11947;50.810;4.394;2023-03-25T11:22:06;15.98;;;2.38;;
23539;SDS011;11947;50.810;4.394;2023-03-25T11:24:41;19.63;;;2.22;;
23539;SDS011;11947;50.810;4.394;2023-03-25T11:27:08;13.85;;;2.53;;
23539;SDS011;11947;50.810;4.394;2023-03-25T11:29:40;13.43;;;1.80;;
23539;SDS011;11947;50.810;4.394;2023-03-25T11:32:12;14.13;;;2.38;;
23539;SDS011;11947;50.810;4.394;2023-03-25T11:34:40;16.15;;;2.28;;
23539;SDS011;11947;50.810;4.394;2023-03-25T11:37:15;15.23;;;2.30;;
23539;SDS011;11947;50.810;4.394;2023-03-25T11:39:43;16.63;;;1.97;;
23539;SDS011;11947;50.810;4.394;2023-03-25T11:44:53;11.43;;;2.25;;
23539;SDS011;11947;50.810;4.394;2023-03-25T11:47:31;10.15;;;2.05;;
23539;SDS011;11947;50.810;4.394;2023-03-25T11:49:58;14.93;;;1.95;;
23539;SDS011;11947;50.810;4.394;2023-03-25T11:52:41;15.98;;;2.50;;
23539;SDS011;11947;50.810;4.394;2023-03-25T11:55:18;12.07;;;1.73;;
23539;SDS011;11947;50.810;4.394;2023-03-25T11:57:47;16.15;;;2.15;;
23539;SDS011;11947;50.810;4.394;2023-03-25T12:02:57;20.20;;;2.40;;
23539;SDS011;11947;50.810;4.394;2023-03-25T12:05:31;12.20;;;1.50;;
23539;SDS011;11947;50.810;4.394;2023-03-25T12:08:10;14.95;;;2.20;;
23539;SDS011;11947;50.810;4.394;2023-03-25T12:10:51;14.95;;;2.33;;
23539;SDS011;11947;50.810;4.394;2023-03-25T12:13:30;13.35;;;2.00;;
23539;SDS011;11947;50.810;4.394;2023-03-25T12:24:15;17.95;;;2.22;;
23539;SDS011;11947;50.810;4.394;2023-03-25T12:43:36;14.73;;;1.88;;
23539;SDS011;11947;50.810;4.394;2023-03-25T12:55:22;11.43;;;2.28;;
23539;SDS011;11947;50.810;4.394;2023-03-25T13:03:31;18.35;;;2.67;;
23539;SDS011;11947;50.810;4.394;2023-03-25T13:06:14;19.05;;;1.75;;
23539;SDS011;11947;50.810;4.394;2023-03-25T13:09:01;16.80;;;2.47;;
23539;SDS011;11947;50.810;4.394;2023-03-25T13:11:42;14.95;;;2.10;;
23539;SDS011;11947;50.810;4.394;2023-03-25T13:14:16;16.25;;;2.75;;
23539;SDS011;11947;50.810;4.394;2023-03-25T13:16:45;16.70;;;2.05;;
23539;SDS011;11947;50.810;4.394;2023-03-25T13:19:14;18.92;;;2.25;;
23539;SDS011;11947;50.810;4.394;2023-03-25T13:21:48;17.67;;;2.65;;
23539;SDS011;11947;50.810;4.394;2023-03-25T13:24:37;18.17;;;3.38;;
23539;SDS011;11947;50.810;4.394;2023-03-25T13:27:09;16.88;;;4.18;;
23539;SDS011;11947;50.810;4.394;2023-03-25T13:29:45;18.13;;;2.67;;
23539;SDS011;11947;50.810;4.394;2023-03-25T13:32:22;16.50;;;2.55;;
23539;SDS011;11947;50.810;4.394;2023-03-25T13:34:55;15.60;;;2.92;;
23539;SDS011;11947;50.810;4.394;2023-03-25T13:37:34;14.73;;;2.88;;
23539;SDS011;11947;50.810;4.394;2023-03-25T13:45:27;10.45;;;2.00;;
23539;SDS011;11947;50.810;4.394;2023-03-25T13:48:09;15.20;;;2.30;;
23539;SDS011;11947;50.810;4.394;2023-03-25T13:50:54;13.48;;;2.28;;
23539;SDS011;11947;50.810;4.394;2023-03-25T13:53:42;13.63;;;2.40;;
23539;SDS011;11947;50.810;4.394;2023-03-25T14:12:52;9.13;;;1.60;;
23539;SDS011;11947;50.810;4.394;2023-03-25T14:15:27;10.43;;;1.92;;
23539;SDS011;11947;50.810;4.394;2023-03-25T14:17:55;10.05;;;2.08;;
23539;SDS011;11947;50.810;4.394;2023-03-25T14:20:23;8.63;;;1.80;;
23539;SDS011;11947;50.810;4.394;2023-03-25T14:23:01;8.10;;;1.77;;
23539;SDS011;11947;50.810;4.394;2023-03-25T14:25:40;10.73;;;1.70;;
23539;SDS011;11947;50.810;4.394;2023-03-25T14:28:11;7.43;;;1.55;;
23539;SDS011;11947;50.810;4.394;2023-03-25T14:30:42;10.82;;;2.25;;
23539;SDS011;11947;50.810;4.394;2023-03-25T14:33:09;10.15;;;1.90;;
23539;SDS011;11947;50.810;4.394;2023-03-25T14:43:25;10.45;;;2.00;;
23539;SDS011;11947;50.810;4.394;2023-03-25T14:48:35;13.15;;;2.00;;
23539;SDS011;11947;50.810;4.394;2023-03-25T14:53:51;10.13;;;1.48;;
23539;SDS011;11947;50.810;4.394;2023-03-25T14:58:53;9.25;;;1.35;;
23539;SDS011;11947;50.810;4.394;2023-03-25T15:01:24;8.45;;;1.75;;
23539;SDS011;11947;50.810;4.394;2023-03-25T15:04:06;11.80;;;1.52;;
23539;SDS011;11947;50.810;4.394;2023-03-25T15:06:38;13.32;;;1.77;;
23539;SDS011;11947;50.810;4.394;2023-03-25T15:09:05;11.95;;;1.98;;
23539;SDS011;11947;50.810;4.394;2023-03-25T15:11:34;9.88;;;1.77;;
23539;SDS011;11947;50.810;4.394;2023-03-25T15:14:02;11.32;;;2.08;;
23539;SDS011;11947;50.810;4.394;2023-03-25T15:16:54;13.98;;;2.22;;
23539;SDS011;11947;50.810;4.394;2023-03-25T15:19:24;9.73;;;1.85;;
23539;SDS011;11947;50.810;4.394;2023-03-25T15:24:30;11.13;;;1.80;;
23539;SDS011;11947;50.810;4.394;2023-03-25T15:26:58;9.15;;;1.70;;
23539;SDS011;11947;50.810;4.394;2023-03-25T15:40:16;14.07;;;2.30;;
23539;SDS011;11947;50.810;4.394;2023-03-25T15:56:46;12.27;;;2.35;;
23539;SDS011;11947;50.810;4.394;2023-03-25T16:02:02;17.60;;;2.20;;
23539;SDS011;11947;50.810;4.394;2023-03-25T16:04:42;17.77;;;2.35;;
23539;SDS011;11947;50.810;4.394;2023-03-25T16:07:12;15.52;;;2.15;;
23539;SDS011;11947;50.810;4.394;2023-03-25T16:09:39;12.13;;;1.88;;
23539;SDS011;11947;50.810;4.394;2023-03-25T16:12:10;10.70;;;1.85;;
23539;SDS011;11947;50.810;4.394;2023-03-25T16:14:36;16.98;;;2.33;;
23539;SDS011;11947;50.810;4.394;2023-03-25T16:17:03;13.10;;;2.63;;
23539;SDS011;11947;50.810;4.394;2023-03-25T16:19:36;14.27;;;2.50;;
23539;SDS011;11947;50.810;4.394;2023-03-25T16:22:14;10.68;;;2.25;;
23539;SDS011;11947;50.810;4.394;2023-03-25T16:24:43;11.50;;;1.88;;
23539;SDS011;11947;50.810;4.394;2023-03-25T16:27:12;14.48;;;2.45;;
23539;SDS011;11947;50.810;4.394;2023-03-25T16:30:26;12.52;;;2.42;;
23539;SDS011;11947;50.810;4.394;2023-03-25T16:33:31;16.67;;;2.40;;
23539;SDS011;11947;50.810;4.394;2023-03-25T16:35:55;15.98;;;2.65;;
23539;SDS011;11947;50.810;4.394;2023-03-25T16:38:26;18.15;;;2.45;;
23539;SDS011;11947;50.810;4.394;2023-03-25T16:41:01;19.83;;;2.60;;
23539;SDS011;11947;50.810;4.394;2023-03-25T16:43:31;19.35;;;2.53;;
23539;SDS011;11947;50.810;4.394;2023-03-25T16:45:58;15.63;;;2.42;;
23539;SDS011;11947;50.810;4.394;2023-03-25T16:48:27;15.05;;;2.10;;
23539;SDS011;11947;50.810;4.394;2023-03-25T16:50:58;17.63;;;2.22;;
23539;SDS011;11947;50.810;4.394;2023-03-25T16:58:33;16.95;;;2.47;;
23539;SDS011;11947;50.810;4.394;2023-03-25T17:01:07;12.65;;;2.38;;
23539;SDS011;11947;50.810;4.394;2023-03-25T17:03:44;21.55;;;2.65;;
23539;SDS011;11947;50.810;4.394;2023-03-25T17:06:14;18.80;;;3.28;;
23539;SDS011;11947;50.810;4.394;2023-03-25T17:09:22;23.90;;;3.80;;
23539;SDS011;11947;50.810;4.394;2023-03-25T17:11:58;23.73;;;3.50;;
23539;SDS011;11947;50.810;4.394;2023-03-25T17:14:32;17.92;;;2.80;;
23539;SDS011;11947;50.810;4.394;2023-03-25T17:20:25;12.83;;;2.80;;
23539;SDS011;11947;50.810;4.394;2023-03-25T17:23:06;15.82;;;2.50;;
23539;SDS011;11947;50.810;4.394;2023-03-25T17:25:54;24.27;;;2.83;;
23539;SDS011;11947;50.810;4.394;2023-03-25T17:28:37;17.05;;;2.70;;
23539;SDS011;11947;50.810;4.394;2023-03-25T17:33:50;24.45;;;2.53;;
23539;SDS011;11947;50.810;4.394;2023-03-25T17:36:17;20.02;;;2.70;;
23539;SDS011;11947;50.810;4.394;2023-03-25T17:38:45;19.95;;;2.83;;
23539;SDS011;11947;50.810;4.394;2023-03-25T17:41:13;13.93;;;2.70;;
23539;SDS011;11947;50.810;4.394;2023-03-25T17:43:42;19.80;;;2.72;;
23539;SDS011;11947;50.810;4.394;2023-03-25T17:46:17;24.98;;;3.33;;
23539;SDS011;11947;50.810;4.394;2023-03-25T17:48:45;16.17;;;2.42;;
23539;SDS011;11947;50.810;4.394;2023-03-25T17:51:11;23.98;;;2.83;;
23539;SDS011;11947;50.810;4.394;2023-03-25T17:53:38;15.80;;;3.00;;
23539;SDS011;11947;50.810;4.394;2023-03-25T17:56:04;20.58;;;2.90;;
23539;SDS011;11947;50.810;4.394;2023-03-25T17:58:31;14.68;;;3.00;;
23539;SDS011;11947;50.810;4.394;2023-03-25T18:00:57;18.02;;;2.70;;
23539;SDS011;11947;50.810;4.394;2023-03-25T18:03:25;15.13;;;2.47;;
23539;SDS011;11947;50.810;4.394;2023-03-25T18:05:52;17.17;;;2.92;;
23539;SDS011;11947;50.810;4.394;2023-03-25T18:08:19;21.38;;;2.95;;
23539;SDS011;11947;50.810;4.394;2023-03-25T18:10:47;23.35;;;2.70;;
23539;SDS011;11947;50.810;4.394;2023-03-25T18:13:13;18.58;;;3.25;;
23539;SDS011;11947;50.810;4.394;2023-03-25T18:15:39;20.85;;;2.58;;
23539;SDS011;11947;50.810;4.394;2023-03-25T18:18:05;22.10;;;3.25;;
23539;SDS011;11947;50.810;4.394;2023-03-25T18:20:32;16.60;;;2.90;;
23539;SDS011;11947;50.810;4.394;2023-03-25T18:22:59;17.63;;;2.78;;